sensor_id;sensor_type;location;lat;lon;timestamp;P1;durP1;ratioP1;P2;durP2;ratioP2
12784;SDS011;6456;42.680;23.260;2023-07-22T00:01:18;8.73;;;5.25;;
12784;SDS011;6456;42.680;23.260;2023-07-22T00:03:45;8.15;;;5.05;;
12784;SDS011;6456;42.680;23.260;2023-07-22T00:06:12;7.93;;;5.65;;
12784;SDS011;6456;42.680;23.260;2023-07-22T00:08:39;8.73;;;5.55;;
12784;SDS011;6456;42.680;23.260;2023-07-22T00:11:06;10.80;;;5.45;;
12784;SDS011;6456;42.680;23.260;2023-07-22T00:13:34;11.38;;;5.20;;
12784;SDS011;6456;42.680;23.260;2023-07-22T00:16:02;9.48;;;5.28;;
12784;SDS011;6456;42.680;23.260;2023-07-22T00:18:29;7.47;;;5.20;;
12784;SDS011;6456;42.680;23.260;2023-07-22T00:20:57;12.68;;;5.97;;
12784;SDS011;6456;42.680;23.260;2023-07-22T00:23:24;7.68;;;5.35;;
12784;SDS011;6456;42.680;23.260;2023-07-22T00:25:51;6.15;;;4.78;;
12784;SDS011;6456;42.680;23.260;2023-07-22T00:28:18;9.85;;;5.20;;
12784;SDS011;6456;42.680;23.260;2023-07-22T00:30:46;8.00;;;5.00;;
12784;SDS011;6456;42.680;23.260;2023-07-22T00:33:14;6.68;;;4.55;;
12784;SDS011;6456;42.680;23.260;2023-07-22T00:35:41;8.10;;;5.20;;
12784;SDS011;6456;42.680;23.260;2023-07-22T00:38:08;7.82;;;4.85;;
12784;SDS011;6456;42.680;23.260;2023-07-22T00:40:36;8.20;;;4.90;;
12784;SDS011;6456;42.680;23.260;2023-07-22T00:43:02;8.20;;;5.07;;
12784;SDS011;6456;42.680;23.260;2023-07-22T00:45:32;7.80;;;4.90;;
12784;SDS011;6456;42.680;23.260;2023-07-22T00:48:00;7.68;;;5.32;;
12784;SDS011;6456;42.680;23.260;2023-07-22T00:50:28;8.00;;;5.45;;
12784;SDS011;6456;42.680;23.260;2023-07-22T00:52:55;9.15;;;5.32;;
12784;SDS011;6456;42.680;23.260;2023-07-22T00:55:22;7.88;;;4.90;;
12784;SDS011;6456;42.680;23.260;2023-07-22T00:57:49;6.38;;;5.38;;
12784;SDS011;6456;42.680;23.260;2023-07-22T01:00:16;8.50;;;5.40;;
12784;SDS011;6456;42.680;23.260;2023-07-22T01:02:43;9.20;;;5.35;;
12784;SDS011;6456;42.680;23.260;2023-07-22T01:05:12;6.38;;;5.53;;
12784;SDS011;6456;42.680;23.260;2023-07-22T01:07:39;5.95;;;5.07;;
12784;SDS011;6456;42.680;23.260;2023-07-22T01:10:06;10.98;;;5.93;;
12784;SDS011;6456;42.680;23.260;2023-07-22T01:12:34;6.95;;;5.50;;
12784;SDS011;6456;42.680;23.260;2023-07-22T01:15:02;7.63;;;5.22;;
12784;SDS011;6456;42.680;23.260;2023-07-22T01:17:33;6.68;;;5.15;;
12784;SDS011;6456;42.680;23.260;2023-07-22T01:20:01;10.27;;;5.38;;
12784;SDS011;6456;42.680;23.260;2023-07-22T01:22:30;7.03;;;5.75;;
12784;SDS011;6456;42.680;23.260;2023-07-22T01:24:59;11.82;;;5.30;;
12784;SDS011;6456;42.680;23.260;2023-07-22T01:27:27;10.85;;;4.65;;
12784;SDS011;6456;42.680;23.260;2023-07-22T01:29:54;7.72;;;5.10;;
12784;SDS011;6456;42.680;23.260;2023-07-22T01:32:21;7.50;;;5.50;;
12784;SDS011;6456;42.680;23.260;2023-07-22T01:34:48;10.65;;;4.97;;
12784;SDS011;6456;42.680;23.260;2023-07-22T01:37:15;7.53;;;4.50;;
12784;SDS011;6456;42.680;23.260;2023-07-22T01:39:42;7.78;;;5.10;;
12784;SDS011;6456;42.680;23.260;2023-07-22T01:42:11;8.93;;;5.53;;
12784;SDS011;6456;42.680;23.260;2023-07-22T01:44:39;6.90;;;5.22;;
12784;SDS011;6456;42.680;23.260;2023-07-22T01:47:06;5.90;;;5.30;;
12784;SDS011;6456;42.680;23.260;2023-07-22T01:49:33;7.13;;;5.45;;
12784;SDS011;6456;42.680;23.260;2023-07-22T01:52:00;9.15;;;5.70;;
12784;SDS011;6456;42.680;23.260;2023-07-22T01:54:27;8.02;;;5.47;;
12784;SDS011;6456;42.680;23.260;2023-07-22T01:56:54;9.35;;;5.88;;
12784;SDS011;6456;42.680;23.260;2023-07-22T01:59:22;6.65;;;5.15;;
12784;SDS011;6456;42.680;23.260;2023-07-22T02:01:49;9.00;;;5.85;;
12784;SDS011;6456;42.680;23.260;2023-07-22T02:04:16;8.93;;;5.18;;
12784;SDS011;6456;42.680;23.260;2023-07-22T02:06:43;10.38;;;5.70;;
12784;SDS011;6456;42.680;23.260;2023-07-22T02:09:10;12.57;;;6.50;;
12784;SDS011;6456;42.680;23.260;2023-07-22T02:11:38;6.25;;;5.15;;
12784;SDS011;6456;42.680;23.260;2023-07-22T02:14:06;8.68;;;5.82;;
12784;SDS011;6456;42.680;23.260;2023-07-22T02:16:34;7.00;;;5.07;;
12784;SDS011;6456;42.680;23.260;2023-07-22T02:19:01;6.85;;;5.45;;
12784;SDS011;6456;42.680;23.260;2023-07-22T02:21:29;7.38;;;5.90;;
12784;SDS011;6456;42.680;23.260;2023-07-22T02:23:56;7.25;;;5.90;;
12784;SDS011;6456;42.680;23.260;2023-07-22T02:26:23;8.82;;;5.75;;
12784;SDS011;6456;42.680;23.260;2023-07-22T02:28:50;10.82;;;5.72;;
12784;SDS011;6456;42.680;23.260;2023-07-22T02:31:17;11.30;;;5.97;;
12784;SDS011;6456;42.680;23.260;2023-07-22T02:33:45;10.60;;;5.95;;
12784;SDS011;6456;42.680;23.260;2023-07-22T02:36:12;6.63;;;5.40;;
12784;SDS011;6456;42.680;23.260;2023-07-22T02:38:39;5.78;;;5.18;;
12784;SDS011;6456;42.680;23.260;2023-07-22T02:41:05;7.07;;;5.40;;
12784;SDS011;6456;42.680;23.260;2023-07-22T02:43:33;9.55;;;5.65;;
12784;SDS011;6456;42.680;23.260;2023-07-22T02:46:00;5.47;;;4.35;;
12784;SDS011;6456;42.680;23.260;2023-07-22T02:48:27;7.65;;;5.82;;
12784;SDS011;6456;42.680;23.260;2023-07-22T02:53:41;6.88;;;5.18;;
12784;SDS011;6456;42.680;23.260;2023-07-22T02:56:09;6.85;;;5.22;;
12784;SDS011;6456;42.680;23.260;2023-07-22T02:58:36;7.00;;;5.35;;
12784;SDS011;6456;42.680;23.260;2023-07-22T03:01:03;7.13;;;5.15;;
12784;SDS011;6456;42.680;23.260;2023-07-22T03:03:31;7.45;;;5.88;;
12784;SDS011;6456;42.680;23.260;2023-07-22T03:05:59;9.68;;;5.50;;
12784;SDS011;6456;42.680;23.260;2023-07-22T03:08:27;8.32;;;5.18;;
12784;SDS011;6456;42.680;23.260;2023-07-22T03:10:54;6.65;;;5.40;;
12784;SDS011;6456;42.680;23.260;2023-07-22T03:13:21;13.07;;;5.65;;
12784;SDS011;6456;42.680;23.260;2023-07-22T03:15:48;7.07;;;5.50;;
12784;SDS011;6456;42.680;23.260;2023-07-22T03:18:15;7.88;;;4.90;;
12784;SDS011;6456;42.680;23.260;2023-07-22T03:20:42;6.82;;;5.15;;
12784;SDS011;6456;42.680;23.260;2023-07-22T03:23:09;9.25;;;5.25;;
12784;SDS011;6456;42.680;23.260;2023-07-22T03:25:37;8.23;;;5.38;;
12784;SDS011;6456;42.680;23.260;2023-07-22T03:28:05;6.95;;;5.65;;
12784;SDS011;6456;42.680;23.260;2023-07-22T03:30:32;8.68;;;5.43;;
12784;SDS011;6456;42.680;23.260;2023-07-22T03:33:00;8.18;;;5.38;;
12784;SDS011;6456;42.680;23.260;2023-07-22T03:35:27;9.50;;;6.05;;
12784;SDS011;6456;42.680;23.260;2023-07-22T03:37:54;6.28;;;5.07;;
12784;SDS011;6456;42.680;23.260;2023-07-22T03:40:21;7.30;;;5.40;;
12784;SDS011;6456;42.680;23.260;2023-07-22T03:42:53;8.85;;;5.03;;
12784;SDS011;6456;42.680;23.260;2023-07-22T03:45:21;8.52;;;5.55;;
12784;SDS011;6456;42.680;23.260;2023-07-22T03:47:50;12.50;;;5.57;;
12784;SDS011;6456;42.680;23.260;2023-07-22T03:50:17;6.75;;;5.28;;
12784;SDS011;6456;42.680;23.260;2023-07-22T03:52:45;7.38;;;5.40;;
12784;SDS011;6456;42.680;23.260;2023-07-22T03:55:12;9.15;;;5.32;;
12784;SDS011;6456;42.680;23.260;2023-07-22T03:57:38;8.35;;;5.30;;
12784;SDS011;6456;42.680;23.260;2023-07-22T04:00:08;7.30;;;5.20;;
12784;SDS011;6456;42.680;23.260;2023-07-22T04:02:36;9.23;;;5.57;;
12784;SDS011;6456;42.680;23.260;2023-07-22T04:05:03;6.10;;;5.40;;
12784;SDS011;6456;42.680;23.260;2023-07-22T04:07:30;6.20;;;5.05;;
12784;SDS011;6456;42.680;23.260;2023-07-22T04:09:57;7.80;;;5.70;;
12784;SDS011;6456;42.680;23.260;2023-07-22T04:12:24;8.93;;;5.65;;
12784;SDS011;6456;42.680;23.260;2023-07-22T04:14:51;8.05;;;5.75;;
12784;SDS011;6456;42.680;23.260;2023-07-22T04:17:19;5.75;;;5.03;;
12784;SDS011;6456;42.680;23.260;2023-07-22T04:19:46;6.32;;;5.18;;
12784;SDS011;6456;42.680;23.260;2023-07-22T04:22:12;9.50;;;5.78;;
12784;SDS011;6456;42.680;23.260;2023-07-22T04:24:39;8.07;;;5.28;;
12784;SDS011;6456;42.680;23.260;2023-07-22T04:27:06;9.93;;;5.47;;
12784;SDS011;6456;42.680;23.260;2023-07-22T04:29:33;10.20;;;5.53;;
12784;SDS011;6456;42.680;23.260;2023-07-22T04:32:01;8.98;;;6.72;;
12784;SDS011;6456;42.680;23.260;2023-07-22T04:34:31;7.07;;;5.65;;
12784;SDS011;6456;42.680;23.260;2023-07-22T04:36:58;8.82;;;5.45;;
12784;SDS011;6456;42.680;23.260;2023-07-22T04:39:25;8.50;;;5.43;;
12784;SDS011;6456;42.680;23.260;2023-07-22T04:41:52;10.60;;;5.75;;
12784;SDS011;6456;42.680;23.260;2023-07-22T04:44:19;8.65;;;5.75;;
12784;SDS011;6456;42.680;23.260;2023-07-22T04:46:46;7.93;;;5.53;;
12784;SDS011;6456;42.680;23.260;2023-07-22T04:49:13;6.70;;;5.82;;
12784;SDS011;6456;42.680;23.260;2023-07-22T04:51:44;9.75;;;5.70;;
12784;SDS011;6456;42.680;23.260;2023-07-22T04:54:11;8.95;;;5.63;;
12784;SDS011;6456;42.680;23.260;2023-07-22T04:56:38;6.40;;;5.80;;
12784;SDS011;6456;42.680;23.260;2023-07-22T04:59:05;7.35;;;5.82;;
12784;SDS011;6456;42.680;23.260;2023-07-22T05:01:32;7.72;;;5.43;;
12784;SDS011;6456;42.680;23.260;2023-07-22T05:03:59;7.68;;;5.65;;
12784;SDS011;6456;42.680;23.260;2023-07-22T05:06:32;7.30;;;5.80;;
12784;SDS011;6456;42.680;23.260;2023-07-22T05:09:02;9.25;;;6.43;;
12784;SDS011;6456;42.680;23.260;2023-07-22T05:11:29;10.20;;;7.00;;
12784;SDS011;6456;42.680;23.260;2023-07-22T05:13:56;9.40;;;6.68;;
12784;SDS011;6456;42.680;23.260;2023-07-22T05:16:23;7.70;;;6.35;;
12784;SDS011;6456;42.680;23.260;2023-07-22T05:18:50;11.70;;;7.00;;
12784;SDS011;6456;42.680;23.260;2023-07-22T05:21:17;10.43;;;6.05;;
12784;SDS011;6456;42.680;23.260;2023-07-22T05:23:44;9.77;;;6.45;;
12784;SDS011;6456;42.680;23.260;2023-07-22T05:26:12;9.52;;;6.13;;
12784;SDS011;6456;42.680;23.260;2023-07-22T05:28:39;9.52;;;6.20;;
12784;SDS011;6456;42.680;23.260;2023-07-22T05:31:06;12.32;;;6.35;;
12784;SDS011;6456;42.680;23.260;2023-07-22T05:33:32;8.70;;;5.65;;
12784;SDS011;6456;42.680;23.260;2023-07-22T05:35:59;11.30;;;6.78;;
12784;SDS011;6456;42.680;23.260;2023-07-22T05:38:26;7.93;;;6.20;;
12784;SDS011;6456;42.680;23.260;2023-07-22T05:40:53;11.23;;;6.43;;
12784;SDS011;6456;42.680;23.260;2023-07-22T05:43:22;9.02;;;6.93;;
12784;SDS011;6456;42.680;23.260;2023-07-22T05:45:49;7.32;;;6.57;;
12784;SDS011;6456;42.680;23.260;2023-07-22T05:48:16;9.57;;;6.97;;
12784;SDS011;6456;42.680;23.260;2023-07-22T05:50:42;9.65;;;6.72;;
12784;SDS011;6456;42.680;23.260;2023-07-22T05:53:09;10.52;;;6.90;;
12784;SDS011;6456;42.680;23.260;2023-07-22T05:55:36;10.65;;;7.20;;
12784;SDS011;6456;42.680;23.260;2023-07-22T05:58:03;10.32;;;7.68;;
12784;SDS011;6456;42.680;23.260;2023-07-22T06:00:32;11.40;;;7.70;;
12784;SDS011;6456;42.680;23.260;2023-07-22T06:02:59;8.45;;;7.63;;
12784;SDS011;6456;42.680;23.260;2023-07-22T06:05:26;11.30;;;7.63;;
12784;SDS011;6456;42.680;23.260;2023-07-22T06:07:53;8.30;;;6.95;;
12784;SDS011;6456;42.680;23.260;2023-07-22T06:10:22;17.48;;;7.25;;
12784;SDS011;6456;42.680;23.260;2023-07-22T06:12:49;8.68;;;7.45;;
12784;SDS011;6456;42.680;23.260;2023-07-22T06:15:15;10.75;;;7.88;;
12784;SDS011;6456;42.680;23.260;2023-07-22T06:17:44;8.05;;;7.28;;
12784;SDS011;6456;42.680;23.260;2023-07-22T06:20:11;7.70;;;6.93;;
12784;SDS011;6456;42.680;23.260;2023-07-22T06:22:38;13.18;;;7.15;;
12784;SDS011;6456;42.680;23.260;2023-07-22T06:25:05;8.60;;;6.70;;
12784;SDS011;6456;42.680;23.260;2023-07-22T06:27:32;9.38;;;6.72;;
12784;SDS011;6456;42.680;23.260;2023-07-22T06:29:59;8.90;;;7.00;;
12784;SDS011;6456;42.680;23.260;2023-07-22T06:32:26;10.25;;;7.93;;
12784;SDS011;6456;42.680;23.260;2023-07-22T06:34:56;10.27;;;8.27;;
12784;SDS011;6456;42.680;23.260;2023-07-22T06:37:23;12.00;;;8.32;;
12784;SDS011;6456;42.680;23.260;2023-07-22T06:39:51;8.90;;;8.00;;
12784;SDS011;6456;42.680;23.260;2023-07-22T06:42:18;10.00;;;8.00;;
12784;SDS011;6456;42.680;23.260;2023-07-22T06:44:44;9.27;;;7.85;;
12784;SDS011;6456;42.680;23.260;2023-07-22T06:47:11;11.50;;;8.07;;
12784;SDS011;6456;42.680;23.260;2023-07-22T06:49:38;10.05;;;8.40;;
12784;SDS011;6456;42.680;23.260;2023-07-22T06:52:07;13.65;;;8.32;;
12784;SDS011;6456;42.680;23.260;2023-07-22T06:54:34;9.43;;;8.32;;
12784;SDS011;6456;42.680;23.260;2023-07-22T06:57:02;9.13;;;8.18;;
12784;SDS011;6456;42.680;23.260;2023-07-22T06:59:31;9.57;;;8.60;;
12784;SDS011;6456;42.680;23.260;2023-07-22T07:01:57;12.63;;;8.55;;
12784;SDS011;6456;42.680;23.260;2023-07-22T07:04:24;13.65;;;8.38;;
12784;SDS011;6456;42.680;23.260;2023-07-22T07:06:51;10.75;;;7.85;;
12784;SDS011;6456;42.680;23.260;2023-07-22T07:09:19;9.07;;;7.95;;
12784;SDS011;6456;42.680;23.260;2023-07-22T07:11:46;10.93;;;7.75;;
12784;SDS011;6456;42.680;23.260;2023-07-22T07:14:13;11.05;;;7.97;;
12784;SDS011;6456;42.680;23.260;2023-07-22T07:16:40;14.15;;;9.05;;
12784;SDS011;6456;42.680;23.260;2023-07-22T07:19:07;10.02;;;8.02;;
12784;SDS011;6456;42.680;23.260;2023-07-22T07:21:34;14.85;;;9.00;;
12784;SDS011;6456;42.680;23.260;2023-07-22T07:24:00;15.10;;;9.00;;
12784;SDS011;6456;42.680;23.260;2023-07-22T07:26:29;9.93;;;8.40;;
12784;SDS011;6456;42.680;23.260;2023-07-22T07:28:56;9.25;;;8.25;;
12784;SDS011;6456;42.680;23.260;2023-07-22T07:31:22;9.10;;;7.55;;
12784;SDS011;6456;42.680;23.260;2023-07-22T07:33:50;12.88;;;8.10;;
12784;SDS011;6456;42.680;23.260;2023-07-22T07:36:17;10.15;;;8.38;;
12784;SDS011;6456;42.680;23.260;2023-07-22T07:38:43;10.73;;;9.10;;
12784;SDS011;6456;42.680;23.260;2023-07-22T07:41:10;11.82;;;8.68;;
12784;SDS011;6456;42.680;23.260;2023-07-22T07:43:39;11.43;;;8.40;;
12784;SDS011;6456;42.680;23.260;2023-07-22T07:46:13;16.90;;;8.88;;
12784;SDS011;6456;42.680;23.260;2023-07-22T07:48:42;9.30;;;8.32;;
12784;SDS011;6456;42.680;23.260;2023-07-22T07:51:10;13.10;;;9.13;;
12784;SDS011;6456;42.680;23.260;2023-07-22T07:53:37;13.15;;;8.63;;
12784;SDS011;6456;42.680;23.260;2023-07-22T07:56:04;12.13;;;9.20;;
12784;SDS011;6456;42.680;23.260;2023-07-22T07:58:31;10.73;;;8.68;;
12784;SDS011;6456;42.680;23.260;2023-07-22T08:00:59;12.32;;;8.82;;
12784;SDS011;6456;42.680;23.260;2023-07-22T08:03:26;14.65;;;9.57;;
12784;SDS011;6456;42.680;23.260;2023-07-22T08:05:53;10.40;;;8.38;;
12784;SDS011;6456;42.680;23.260;2023-07-22T08:08:21;14.57;;;9.40;;
12784;SDS011;6456;42.680;23.260;2023-07-22T08:10:56;11.65;;;8.88;;
12784;SDS011;6456;42.680;23.260;2023-07-22T08:13:24;10.57;;;7.95;;
12784;SDS011;6456;42.680;23.260;2023-07-22T08:15:51;9.82;;;8.30;;
12784;SDS011;6456;42.680;23.260;2023-07-22T08:18:19;11.05;;;9.02;;
12784;SDS011;6456;42.680;23.260;2023-07-22T08:20:46;13.38;;;9.23;;
12784;SDS011;6456;42.680;23.260;2023-07-22T08:23:13;13.00;;;8.90;;
12784;SDS011;6456;42.680;23.260;2023-07-22T08:25:40;10.35;;;8.65;;
12784;SDS011;6456;42.680;23.260;2023-07-22T08:28:07;12.40;;;9.23;;
12784;SDS011;6456;42.680;23.260;2023-07-22T08:30:34;10.02;;;8.98;;
12784;SDS011;6456;42.680;23.260;2023-07-22T08:33:01;13.10;;;9.00;;
12784;SDS011;6456;42.680;23.260;2023-07-22T08:35:29;10.02;;;8.52;;
12784;SDS011;6456;42.680;23.260;2023-07-22T08:37:56;9.43;;;8.50;;
12784;SDS011;6456;42.680;23.260;2023-07-22T08:40:22;13.05;;;9.02;;
12784;SDS011;6456;42.680;23.260;2023-07-22T08:42:49;10.63;;;9.32;;
12784;SDS011;6456;42.680;23.260;2023-07-22T08:45:16;12.20;;;8.70;;
12784;SDS011;6456;42.680;23.260;2023-07-22T08:47:45;14.07;;;9.00;;
12784;SDS011;6456;42.680;23.260;2023-07-22T08:50:14;9.93;;;8.95;;
12784;SDS011;6456;42.680;23.260;2023-07-22T08:52:44;15.80;;;8.98;;
12784;SDS011;6456;42.680;23.260;2023-07-22T08:55:14;12.68;;;8.80;;
12784;SDS011;6456;42.680;23.260;2023-07-22T08:57:41;19.05;;;9.65;;
12784;SDS011;6456;42.680;23.260;2023-07-22T09:00:08;15.90;;;10.63;;
12784;SDS011;6456;42.680;23.260;2023-07-22T09:02:37;12.45;;;8.90;;
12784;SDS011;6456;42.680;23.260;2023-07-22T09:05:05;14.65;;;8.90;;
12784;SDS011;6456;42.680;23.260;2023-07-22T09:07:34;12.80;;;9.35;;
12784;SDS011;6456;42.680;23.260;2023-07-22T09:10:02;11.55;;;10.00;;
12784;SDS011;6456;42.680;23.260;2023-07-22T09:12:30;12.52;;;10.25;;
12784;SDS011;6456;42.680;23.260;2023-07-22T09:15:05;10.40;;;8.55;;
12784;SDS011;6456;42.680;23.260;2023-07-22T09:17:34;12.77;;;8.13;;
12784;SDS011;6456;42.680;23.260;2023-07-22T09:20:02;12.52;;;8.82;;
12784;SDS011;6456;42.680;23.260;2023-07-22T09:22:29;15.18;;;8.30;;
12784;SDS011;6456;42.680;23.260;2023-07-22T09:25:12;11.70;;;8.30;;
12784;SDS011;6456;42.680;23.260;2023-07-22T09:27:40;9.95;;;8.88;;
12784;SDS011;6456;42.680;23.260;2023-07-22T09:30:20;12.80;;;8.50;;
12784;SDS011;6456;42.680;23.260;2023-07-22T09:32:48;13.52;;;8.75;;
12784;SDS011;6456;42.680;23.260;2023-07-22T09:35:15;11.30;;;8.55;;
12784;SDS011;6456;42.680;23.260;2023-07-22T09:37:43;12.55;;;9.10;;
12784;SDS011;6456;42.680;23.260;2023-07-22T09:40:16;11.50;;;8.38;;
12784;SDS011;6456;42.680;23.260;2023-07-22T09:42:47;14.68;;;8.95;;
12784;SDS011;6456;42.680;23.260;2023-07-22T09:45:15;10.43;;;8.60;;
12784;SDS011;6456;42.680;23.260;2023-07-22T09:47:43;13.80;;;7.88;;
12784;SDS011;6456;42.680;23.260;2023-07-22T09:50:11;12.88;;;8.95;;
12784;SDS011;6456;42.680;23.260;2023-07-22T09:52:44;11.20;;;7.95;;
12784;SDS011;6456;42.680;23.260;2023-07-22T09:55:15;12.95;;;7.70;;
12784;SDS011;6456;42.680;23.260;2023-07-22T09:57:44;9.70;;;8.18;;
12784;SDS011;6456;42.680;23.260;2023-07-22T10:00:12;11.05;;;7.68;;
12784;SDS011;6456;42.680;23.260;2023-07-22T10:02:41;12.95;;;9.07;;
12784;SDS011;6456;42.680;23.260;2023-07-22T10:05:13;16.92;;;7.60;;
12784;SDS011;6456;42.680;23.260;2023-07-22T10:07:45;12.90;;;7.50;;
12784;SDS011;6456;42.680;23.260;2023-07-22T10:10:13;11.90;;;8.43;;
12784;SDS011;6456;42.680;23.260;2023-07-22T10:12:44;13.43;;;8.15;;
12784;SDS011;6456;42.680;23.260;2023-07-22T10:15:11;12.40;;;6.78;;
12784;SDS011;6456;42.680;23.260;2023-07-22T10:17:39;11.75;;;7.70;;
12784;SDS011;6456;42.680;23.260;2023-07-22T10:20:07;11.07;;;6.70;;
12784;SDS011;6456;42.680;23.260;2023-07-22T10:22:40;12.85;;;6.40;;
12784;SDS011;6456;42.680;23.260;2023-07-22T10:25:08;13.00;;;6.45;;
12784;SDS011;6456;42.680;23.260;2023-07-22T10:27:39;18.23;;;7.13;;
12784;SDS011;6456;42.680;23.260;2023-07-22T10:30:07;13.85;;;6.00;;
12784;SDS011;6456;42.680;23.260;2023-07-22T10:32:36;14.68;;;6.45;;
12784;SDS011;6456;42.680;23.260;2023-07-22T10:35:05;12.27;;;5.70;;
12784;SDS011;6456;42.680;23.260;2023-07-22T10:37:36;14.82;;;6.80;;
12784;SDS011;6456;42.680;23.260;2023-07-22T10:40:16;14.40;;;6.22;;
12784;SDS011;6456;42.680;23.260;2023-07-22T10:42:52;16.20;;;6.32;;
12784;SDS011;6456;42.680;23.260;2023-07-22T10:45:27;13.85;;;5.90;;
12784;SDS011;6456;42.680;23.260;2023-07-22T10:48:03;11.23;;;6.18;;
12784;SDS011;6456;42.680;23.260;2023-07-22T10:50:39;14.05;;;6.55;;
12784;SDS011;6456;42.680;23.260;2023-07-22T10:53:09;17.17;;;6.18;;
12784;SDS011;6456;42.680;23.260;2023-07-22T10:58:54;13.82;;;6.07;;
12784;SDS011;6456;42.680;23.260;2023-07-22T11:01:23;20.70;;;6.30;;
12784;SDS011;6456;42.680;23.260;2023-07-22T11:06:56;16.75;;;5.65;;
12784;SDS011;6456;42.680;23.260;2023-07-22T11:09:33;16.17;;;5.35;;
12784;SDS011;6456;42.680;23.260;2023-07-22T11:12:12;16.73;;;5.95;;
12784;SDS011;6456;42.680;23.260;2023-07-22T11:14:46;13.73;;;5.85;;
12784;SDS011;6456;42.680;23.260;2023-07-22T11:17:14;23.20;;;6.35;;
12784;SDS011;6456;42.680;23.260;2023-07-22T11:19:42;19.08;;;6.18;;
12784;SDS011;6456;42.680;23.260;2023-07-22T11:22:10;22.90;;;5.93;;
12784;SDS011;6456;42.680;23.260;2023-07-22T11:24:38;16.75;;;5.85;;
12784;SDS011;6456;42.680;23.260;2023-07-22T11:27:06;15.00;;;5.88;;
12784;SDS011;6456;42.680;23.260;2023-07-22T11:29:34;14.18;;;6.05;;
12784;SDS011;6456;42.680;23.260;2023-07-22T11:32:03;22.80;;;5.93;;
12784;SDS011;6456;42.680;23.260;2023-07-22T11:34:30;17.60;;;5.78;;
12784;SDS011;6456;42.680;23.260;2023-07-22T11:36:57;14.75;;;6.10;;
12784;SDS011;6456;42.680;23.260;2023-07-22T11:39:24;18.10;;;5.90;;
12784;SDS011;6456;42.680;23.260;2023-07-22T11:41:53;17.80;;;5.28;;
12784;SDS011;6456;42.680;23.260;2023-07-22T11:44:20;13.77;;;5.95;;
12784;SDS011;6456;42.680;23.260;2023-07-22T11:46:53;17.52;;;5.93;;
12784;SDS011;6456;42.680;23.260;2023-07-22T11:49:24;19.35;;;6.35;;
12784;SDS011;6456;42.680;23.260;2023-07-22T11:51:54;10.77;;;5.10;;
12784;SDS011;6456;42.680;23.260;2023-07-22T11:54:21;13.73;;;5.72;;
12784;SDS011;6456;42.680;23.260;2023-07-22T11:56:49;14.20;;;5.70;;
12784;SDS011;6456;42.680;23.260;2023-07-22T11:59:16;16.88;;;6.38;;
12784;SDS011;6456;42.680;23.260;2023-07-22T12:01:43;15.98;;;6.40;;
12784;SDS011;6456;42.680;23.260;2023-07-22T12:04:12;15.43;;;5.95;;
12784;SDS011;6456;42.680;23.260;2023-07-22T12:06:41;14.25;;;6.22;;
12784;SDS011;6456;42.680;23.260;2023-07-22T12:09:08;13.20;;;5.78;;
12784;SDS011;6456;42.680;23.260;2023-07-22T12:11:36;15.73;;;6.00;;
12784;SDS011;6456;42.680;23.260;2023-07-22T12:14:04;13.98;;;5.55;;
12784;SDS011;6456;42.680;23.260;2023-07-22T12:16:34;15.35;;;6.22;;
12784;SDS011;6456;42.680;23.260;2023-07-22T12:19:02;19.75;;;6.38;;
12784;SDS011;6456;42.680;23.260;2023-07-22T12:21:29;18.05;;;5.78;;
12784;SDS011;6456;42.680;23.260;2023-07-22T12:23:58;14.93;;;5.93;;
12784;SDS011;6456;42.680;23.260;2023-07-22T12:26:25;13.40;;;5.47;;
12784;SDS011;6456;42.680;23.260;2023-07-22T12:28:53;16.20;;;5.28;;
12784;SDS011;6456;42.680;23.260;2023-07-22T12:31:20;15.35;;;5.45;;
12784;SDS011;6456;42.680;23.260;2023-07-22T12:33:46;11.10;;;5.50;;
12784;SDS011;6456;42.680;23.260;2023-07-22T12:36:13;13.55;;;5.55;;
12784;SDS011;6456;42.680;23.260;2023-07-22T12:38:40;17.55;;;6.07;;
12784;SDS011;6456;42.680;23.260;2023-07-22T12:41:08;12.48;;;5.53;;
12784;SDS011;6456;42.680;23.260;2023-07-22T12:43:35;11.95;;;5.38;;
12784;SDS011;6456;42.680;23.260;2023-07-22T12:46:02;13.50;;;5.07;;
12784;SDS011;6456;42.680;23.260;2023-07-22T12:48:29;13.43;;;5.25;;
12784;SDS011;6456;42.680;23.260;2023-07-22T12:50:56;15.32;;;5.90;;
12784;SDS011;6456;42.680;23.260;2023-07-22T12:53:23;17.33;;;5.82;;
12784;SDS011;6456;42.680;23.260;2023-07-22T12:55:50;14.98;;;5.40;;
12784;SDS011;6456;42.680;23.260;2023-07-22T12:58:19;17.65;;;5.43;;
12784;SDS011;6456;42.680;23.260;2023-07-22T13:00:45;19.55;;;5.20;;
12784;SDS011;6456;42.680;23.260;2023-07-22T13:03:12;14.05;;;5.28;;
12784;SDS011;6456;42.680;23.260;2023-07-22T13:05:39;13.02;;;5.63;;
12784;SDS011;6456;42.680;23.260;2023-07-22T13:08:06;17.42;;;5.53;;
12784;SDS011;6456;42.680;23.260;2023-07-22T13:10:33;12.23;;;5.45;;
12784;SDS011;6456;42.680;23.260;2023-07-22T13:13:04;14.55;;;5.55;;
12784;SDS011;6456;42.680;23.260;2023-07-22T13:15:32;14.13;;;5.65;;
12784;SDS011;6456;42.680;23.260;2023-07-22T13:17:59;15.10;;;5.90;;
12784;SDS011;6456;42.680;23.260;2023-07-22T13:20:26;16.35;;;5.75;;
12784;SDS011;6456;42.680;23.260;2023-07-22T13:22:53;11.70;;;4.88;;
12784;SDS011;6456;42.680;23.260;2023-07-22T13:25:20;19.00;;;5.50;;
12784;SDS011;6456;42.680;23.260;2023-07-22T13:27:47;17.25;;;5.88;;
12784;SDS011;6456;42.680;23.260;2023-07-22T13:30:14;17.02;;;5.25;;
12784;SDS011;6456;42.680;23.260;2023-07-22T13:32:42;18.45;;;5.07;;
12784;SDS011;6456;42.680;23.260;2023-07-22T13:35:09;18.85;;;6.07;;
12784;SDS011;6456;42.680;23.260;2023-07-22T13:37:36;18.40;;;5.45;;
12784;SDS011;6456;42.680;23.260;2023-07-22T13:40:03;14.88;;;5.45;;
12784;SDS011;6456;42.680;23.260;2023-07-22T13:42:35;19.67;;;6.00;;
12784;SDS011;6456;42.680;23.260;2023-07-22T13:45:02;14.27;;;4.97;;
12784;SDS011;6456;42.680;23.260;2023-07-22T13:47:30;12.45;;;4.97;;
12784;SDS011;6456;42.680;23.260;2023-07-22T13:49:58;19.83;;;5.53;;
12784;SDS011;6456;42.680;23.260;2023-07-22T13:52:24;15.35;;;4.90;;
12784;SDS011;6456;42.680;23.260;2023-07-22T13:54:51;16.48;;;5.32;;
12784;SDS011;6456;42.680;23.260;2023-07-22T13:57:18;13.05;;;5.22;;
12784;SDS011;6456;42.680;23.260;2023-07-22T13:59:45;17.83;;;5.38;;
12784;SDS011;6456;42.680;23.260;2023-07-22T14:02:12;22.38;;;6.30;;
12784;SDS011;6456;42.680;23.260;2023-07-22T14:04:39;13.60;;;5.60;;
12784;SDS011;6456;42.680;23.260;2023-07-22T14:07:07;13.20;;;4.70;;
12784;SDS011;6456;42.680;23.260;2023-07-22T14:09:34;15.55;;;5.30;;
12784;SDS011;6456;42.680;23.260;2023-07-22T14:12:01;13.73;;;5.07;;
12784;SDS011;6456;42.680;23.260;2023-07-22T14:14:28;14.15;;;4.93;;
12784;SDS011;6456;42.680;23.260;2023-07-22T14:16:55;15.88;;;5.10;;
12784;SDS011;6456;42.680;23.260;2023-07-22T14:19:23;17.98;;;5.82;;
12784;SDS011;6456;42.680;23.260;2023-07-22T14:21:50;15.13;;;5.50;;
12784;SDS011;6456;42.680;23.260;2023-07-22T14:24:18;15.27;;;5.20;;
12784;SDS011;6456;42.680;23.260;2023-07-22T14:26:45;13.15;;;4.88;;
12784;SDS011;6456;42.680;23.260;2023-07-22T14:29:12;12.25;;;4.80;;
12784;SDS011;6456;42.680;23.260;2023-07-22T14:31:39;13.38;;;5.18;;
12784;SDS011;6456;42.680;23.260;2023-07-22T14:34:08;19.60;;;4.95;;
12784;SDS011;6456;42.680;23.260;2023-07-22T14:36:35;22.40;;;5.47;;
12784;SDS011;6456;42.680;23.260;2023-07-22T14:39:02;18.63;;;6.30;;
12784;SDS011;6456;42.680;23.260;2023-07-22T14:41:30;17.63;;;5.75;;
12784;SDS011;6456;42.680;23.260;2023-07-22T14:43:57;15.73;;;5.18;;
12784;SDS011;6456;42.680;23.260;2023-07-22T14:46:24;16.58;;;5.18;;
12784;SDS011;6456;42.680;23.260;2023-07-22T14:48:51;15.88;;;5.53;;
12784;SDS011;6456;42.680;23.260;2023-07-22T14:51:17;13.95;;;5.03;;
12784;SDS011;6456;42.680;23.260;2023-07-22T14:53:44;20.88;;;5.53;;